Time;durP1;ratioP1;P1;durP2;ratioP2;P2;SDS_P1;SDS_P2;PMS_P1;PMS_P2;Temp;Humidity;BMP_temperature;BMP_pressure;BME280_temperature;BME280_humidity;BME280_pressure;Samples;Min_cycle;Max_cycle;Signal;HPM_P1;HPM_P2
2021/06/27 00:00:49;;;;;;;8.90;4.73;;;;;;;;;;5002934;28;20198;-75
2021/06/27 00:04:14;;;;;;;5.90;5.27;;;;;;;;;;5004190;28;20182;-75
2021/06/27 00:07:19;;;;;;;8.17;4.90;;;;;;;;;;4996823;28;20221;-75
2021/06/27 00:10:32;;;;;;;6.00;4.90;;;;;;;;;;4999038;28;20186;-75
2021/06/27 00:13:38;;;;;;;5.60;5.10;;;;;;;;;;4996662;28;20226;-75
2021/06/27 00:16:42;;;;;;;5.87;5.07;;;;;;;;;;4997505;28;20202;-75
2021/06/27 00:19:46;;;;;;;5.50;5.00;;;;;;;;;;4986606;28;20186;-75
2021/06/27 00:22:51;;;;;;;7.90;5.30;;;;;;;;;;5015394;28;20181;-75
2021/06/27 00:25:58;;;;;;;6.73;5.07;;;;;;;;;;5009962;28;20193;-75
2021/06/27 00:29:02;;;;;;;5.50;4.90;;;;;;;;;;4997135;28;20190;-75
2021/06/27 00:32:07;;;;;;;5.67;5.17;;;;;;;;;;4984895;28;20179;-75
2021/06/27 00:35:13;;;;;;;5.90;5.23;;;;;;;;;;4997982;28;20233;-75
2021/06/27 00:38:17;;;;;;;6.97;4.67;;;;;;;;;;4997110;28;20218;-75
2021/06/27 00:41:21;;;;;;;4.70;4.27;;;;;;;;;;5000711;28;20194;-75
2021/06/27 00:44:25;;;;;;;6.27;5.67;;;;;;;;;;5002906;28;20630;-75
2021/06/27 00:47:33;;;;;;;6.07;4.80;;;;;;;;;;5003016;28;20559;-75
2021/06/27 00:50:43;;;;;;;5.57;4.77;;;;;;;;;;4995283;28;20182;-75
2021/06/27 00:53:49;;;;;;;9.13;5.17;;;;;;;;;;5001584;28;20672;-75
2021/06/27 00:56:54;;;;;;;8.97;4.57;;;;;;;;;;4984767;28;20212;-75
2021/06/27 01:00:00;;;;;;;5.43;4.20;;;;;;;;;;4995764;28;20202;-75
2021/06/27 01:03:06;;;;;;;6.27;4.83;;;;;;;;;;5004816;28;20201;-75
2021/06/27 01:06:10;;;;;;;4.73;4.33;;;;;;;;;;5014895;28;20193;-75
2021/06/27 01:09:14;;;;;;;6.03;5.00;;;;;;;;;;4996843;28;20193;-75
2021/06/27 01:12:18;;;;;;;7.20;5.10;;;;;;;;;;5011280;28;20181;-75
2021/06/27 01:15:23;;;;;;;5.27;4.77;;;;;;;;;;4994545;28;20214;-75
2021/06/27 01:18:28;;;;;;;5.93;4.87;;;;;;;;;;5008217;28;20221;-75
2021/06/27 01:21:35;;;;;;;7.47;5.40;;;;;;;;;;5003361;28;20190;-75
2021/06/27 01:24:40;;;;;;;7.63;5.67;;;;;;;;;;4995455;28;20613;-75
2021/06/27 01:27:44;;;;;;;6.13;5.33;;;;;;;;;;4995316;28;20214;-75
2021/06/27 01:30:49;;;;;;;7.10;5.03;;;;;;;;;;5014151;28;20186;-76
2021/06/27 01:33:55;;;;;;;5.63;4.70;;;;;;;;;;4998979;28;20549;-75
2021/06/27 01:36:59;;;;;;;5.83;5.20;;;;;;;;;;5001921;28;20229;-75
2021/06/27 01:40:05;;;;;;;5.30;4.80;;;;;;;;;;5002329;28;20185;-75
2021/06/27 01:43:16;;;;;;;6.90;4.90;;;;;;;;;;5013692;28;20178;-75
2021/06/27 01:46:20;;;;;;;16.00;5.30;;;;;;;;;;5013882;28;20178;-75
2021/06/27 01:49:24;;;;;;;6.13;5.53;;;;;;;;;;5007569;28;20194;-75
2021/06/27 01:52:29;;;;;;;5.17;4.60;;;;;;;;;;4994109;28;20202;-75
2021/06/27 01:55:33;;;;;;;6.93;5.17;;;;;;;;;;4995660;28;20554;-75
2021/06/27 01:58:41;;;;;;;7.27;5.07;;;;;;;;;;4993865;28;20214;-75
2021/06/27 02:01:44;;;;;;;5.10;4.53;;;;;;;;;;5003574;28;20190;-75
2021/06/27 02:04:49;;;;;;;5.90;5.30;;;;;;;;;;4992562;28;20521;-75
2021/06/27 02:07:54;;;;;;;6.87;5.37;;;;;;;;;;4994561;28;20214;-75
2021/06/27 02:10:58;;;;;;;9.53;4.93;;;;;;;;;;4993500;28;20190;-75
2021/06/27 02:14:03;;;;;;;7.63;5.80;;;;;;;;;;4994172;28;20226;-75
2021/06/27 02:17:09;;;;;;;5.70;5.07;;;;;;;;;;4997120;28;20556;-75
2021/06/27 02:20:14;;;;;;;6.50;5.87;;;;;;;;;;5009489;28;20193;-75
2021/06/27 02:23:18;;;;;;;5.80;5.30;;;;;;;;;;5000780;28;20189;-75
2021/06/27 02:26:25;;;;;;;6.47;5.10;;;;;;;;;;4994210;28;20178;-75
2021/06/27 02:29:29;;;;;;;8.30;5.33;;;;;;;;;;4998569;28;20193;-75
2021/06/27 02:32:33;;;;;;;6.50;4.87;;;;;;;;;;5005457;28;20190;-75
2021/06/27 02:35:38;;;;;;;5.80;5.20;;;;;;;;;;4992914;28;20708;-76
2021/06/27 02:38:42;;;;;;;9.70;4.77;;;;;;;;;;5003427;28;20689;-76
2021/06/27 02:41:47;;;;;;;9.40;4.57;;;;;;;;;;4999332;28;20182;-75
2021/06/27 02:44:51;;;;;;;5.30;4.77;;;;;;;;;;4994403;28;20634;-75
2021/06/27 02:47:55;;;;;;;5.63;4.60;;;;;;;;;;4994189;28;20217;-75
2021/06/27 02:50:59;;;;;;;5.90;4.37;;;;;;;;;;4993765;28;20186;-75
2021/06/27 02:54:04;;;;;;;7.93;5.20;;;;;;;;;;4997002;28;20193;-75
2021/06/27 02:57:08;;;;;;;10.67;4.60;;;;;;;;;;5002554;28;20576;-76
2021/06/27 03:00:18;;;;;;;5.83;5.33;;;;;;;;;;4990079;28;20541;-75
2021/06/27 03:03:22;;;;;;;7.33;4.90;;;;;;;;;;4993596;28;20665;-76
2021/06/27 03:06:26;;;;;;;5.70;5.13;;;;;;;;;;4993895;28;20182;-75
2021/06/27 03:09:30;;;;;;;5.83;5.23;;;;;;;;;;5003670;28;20636;-75
2021/06/27 03:12:34;;;;;;;6.57;5.43;;;;;;;;;;4981742;28;20205;-75
2021/06/27 03:15:38;;;;;;;5.60;5.10;;;;;;;;;;5011418;28;20209;-75
2021/06/27 03:18:43;;;;;;;7.00;4.63;;;;;;;;;;5005403;28;20214;-75
2021/06/27 03:21:47;;;;;;;6.07;5.00;;;;;;;;;;5012048;28;20584;-75
2021/06/27 03:24:51;;;;;;;6.30;4.67;;;;;;;;;;5009573;28;20186;-75
2021/06/27 03:27:55;;;;;;;8.90;5.27;;;;;;;;;;5000154;28;20233;-75
2021/06/27 03:31:00;;;;;;;7.30;4.93;;;;;;;;;;4997392;28;20190;-75
2021/06/27 03:34:04;;;;;;;7.57;6.37;;;;;;;;;;5007340;28;20198;-76
2021/06/27 03:37:09;;;;;;;7.27;5.83;;;;;;;;;;5042676;22;20232;-73
2021/06/27 03:40:14;;;;;;;7.90;5.03;;;;;;;;;;5027140;28;20192;-73
2021/06/27 03:43:18;;;;;;;7.47;5.93;;;;;;;;;;5021992;28;20201;-72
2021/06/27 03:46:22;;;;;;;6.27;4.73;;;;;;;;;;5026056;28;20193;-73
2021/06/27 03:49:27;;;;;;;6.17;5.30;;;;;;;;;;5016745;28;20182;-74
2021/06/27 03:52:31;;;;;;;7.67;5.60;;;;;;;;;;5027291;28;20201;-73
2021/06/27 03:55:35;;;;;;;6.27;5.60;;;;;;;;;;5015513;28;20221;-73
2021/06/27 03:58:39;;;;;;;5.50;5.00;;;;;;;;;;5025458;28;20220;-74
2021/06/27 04:01:43;;;;;;;6.47;4.97;;;;;;;;;;5023617;28;20194;-73
2021/06/27 04:04:48;;;;;;;5.83;5.23;;;;;;;;;;5019984;28;20185;-73
2021/06/27 04:07:52;;;;;;;6.63;5.20;;;;;;;;;;5033984;28;20216;-73
2021/06/27 04:11:04;;;;;;;7.37;4.97;;;;;;;;;;5016857;28;20189;-73
2021/06/27 04:14:08;;;;;;;6.23;5.27;;;;;;;;;;5022209;28;20189;-73
2021/06/27 04:17:17;;;;;;;6.37;5.33;;;;;;;;;;5016009;28;20217;-73
2021/06/27 04:20:21;;;;;;;12.97;5.60;;;;;;;;;;5016037;28;20177;-73
2021/06/27 04:23:28;;;;;;;8.33;4.77;;;;;;;;;;5021836;28;20189;-73
2021/06/27 04:26:32;;;;;;;5.93;5.33;;;;;;;;;;5023955;28;20182;-74
2021/06/27 04:29:37;;;;;;;6.00;4.50;;;;;;;;;;5022139;28;20198;-74
2021/06/27 04:32:41;;;;;;;8.97;5.30;;;;;;;;;;5022519;28;20181;-73
2021/06/27 04:35:45;;;;;;;6.80;4.60;;;;;;;;;;5031233;28;20208;-74
2021/06/27 04:38:50;;;;;;;6.57;4.60;;;;;;;;;;5027796;28;20576;-74
2021/06/27 04:41:54;;;;;;;7.13;5.43;;;;;;;;;;5012181;28;20194;-74
2021/06/27 04:45:00;;;;;;;5.27;4.77;;;;;;;;;;5028598;28;20188;-74
2021/06/27 04:48:08;;;;;;;6.60;4.60;;;;;;;;;;5030854;28;20224;-74
2021/06/27 04:51:12;;;;;;;7.60;4.53;;;;;;;;;;5031889;28;20181;-74
2021/06/27 04:54:17;;;;;;;7.50;4.50;;;;;;;;;;5029731;28;20197;-74
2021/06/27 04:57:21;;;;;;;6.77;4.50;;;;;;;;;;5030398;28;20213;-73
2021/06/27 05:00:25;;;;;;;5.40;4.83;;;;;;;;;;5026289;28;20193;-73
2021/06/27 05:03:30;;;;;;;5.00;4.40;;;;;;;;;;5011238;28;20190;-73
2021/06/27 05:06:34;;;;;;;5.63;4.70;;;;;;;;;;5012609;28;20197;-73
2021/06/27 05:09:39;;;;;;;6.53;5.27;;;;;;;;;;5027288;28;20190;-73
2021/06/27 05:12:43;;;;;;;5.10;4.60;;;;;;;;;;5011878;28;20182;-72
2021/06/27 05:15:47;;;;;;;5.83;4.20;;;;;;;;;;5011545;28;20209;-73
2021/06/27 05:18:52;;;;;;;5.60;4.53;;;;;;;;;;5010902;28;20707;-73
2021/06/27 05:21:56;;;;;;;8.83;5.03;;;;;;;;;;5018692;28;20189;-73
2021/06/27 05:25:00;;;;;;;6.57;4.57;;;;;;;;;;5011180;28;20201;-73
2021/06/27 05:28:04;;;;;;;6.17;4.33;;;;;;;;;;5010485;28;20568;-73
2021/06/27 05:31:09;;;;;;;5.93;4.77;;;;;;;;;;5010923;28;20177;-73
2021/06/27 05:34:13;;;;;;;4.67;4.27;;;;;;;;;;5022677;28;20193;-73
2021/06/27 05:37:17;;;;;;;4.50;4.10;;;;;;;;;;5011469;28;20225;-73
2021/06/27 05:40:22;;;;;;;6.67;4.73;;;;;;;;;;5013219;28;20201;-73
2021/06/27 05:43:26;;;;;;;7.27;5.93;;;;;;;;;;5010609;28;20201;-73
2021/06/27 05:46:30;;;;;;;5.40;4.90;;;;;;;;;;5009269;28;20537;-73
2021/06/27 05:49:35;;;;;;;7.50;6.07;;;;;;;;;;5025519;28;20647;-73
2021/06/27 05:52:39;;;;;;;6.17;5.60;;;;;;;;;;5010871;28;20219;-73
2021/06/27 05:55:44;;;;;;;7.37;5.50;;;;;;;;;;5010366;28;20313;-73
2021/06/27 05:58:48;;;;;;;6.07;5.47;;;;;;;;;;5013288;28;20217;-73
2021/06/27 06:01:52;;;;;;;5.43;4.93;;;;;;;;;;5023201;28;20193;-73
2021/06/27 06:04:56;;;;;;;5.17;4.67;;;;;;;;;;5014849;28;20193;-73
2021/06/27 06:08:01;;;;;;;16.07;5.20;;;;;;;;;;5029952;28;20220;-73
2021/06/27 06:11:05;;;;;;;7.10;4.93;;;;;;;;;;5027969;28;20196;-73
2021/06/27 06:14:09;;;;;;;8.93;5.13;;;;;;;;;;5029068;28;20196;-73
2021/06/27 06:17:14;;;;;;;6.00;5.40;;;;;;;;;;5029471;28;20224;-73
2021/06/27 06:20:18;;;;;;;6.07;4.97;;;;;;;;;;5010453;28;20640;-73
2021/06/27 06:23:23;;;;;;;10.37;5.63;;;;;;;;;;5020163;28;20189;-73
2021/06/27 06:26:27;;;;;;;5.67;5.03;;;;;;;;;;5031123;28;20197;-73
2021/06/27 06:29:32;;;;;;;5.97;5.37;;;;;;;;;;5009914;28;20189;-73
2021/06/27 06:32:36;;;;;;;5.43;4.93;;;;;;;;;;5029133;28;20184;-73
2021/06/27 06:35:42;;;;;;;7.27;5.63;;;;;;;;;;5012910;28;20723;-73
2021/06/27 06:38:46;;;;;;;9.87;5.67;;;;;;;;;;5012336;28;20216;-74
2021/06/27 06:41:51;;;;;;;7.57;5.77;;;;;;;;;;5028726;28;20176;-74
2021/06/27 06:44:55;;;;;;;6.10;5.50;;;;;;;;;;5011592;28;20197;-73
2021/06/27 06:47:59;;;;;;;7.43;6.00;;;;;;;;;;5025977;28;20886;-73
2021/06/27 06:51:04;;;;;;;6.83;6.13;;;;;;;;;;5029715;28;20173;-73
2021/06/27 06:54:08;;;;;;;7.30;6.50;;;;;;;;;;5023477;28;20197;-73
2021/06/27 06:57:13;;;;;;;6.63;5.93;;;;;;;;;;5031920;28;20228;-74
2021/06/27 07:00:17;;;;;;;5.83;5.20;;;;;;;;;;5009127;28;20193;-74
2021/06/27 07:03:21;;;;;;;6.67;6.07;;;;;;;;;;5009946;28;20197;-73
2021/06/27 07:06:25;;;;;;;7.97;6.13;;;;;;;;;;5022570;28;20324;-73
2021/06/27 07:09:30;;;;;;;6.47;5.83;;;;;;;;;;5009954;28;20174;-74
2021/06/27 07:12:34;;;;;;;8.87;6.23;;;;;;;;;;5009734;28;20181;-74
2021/06/27 07:15:38;;;;;;;6.90;5.73;;;;;;;;;;5022754;28;20552;-74
2021/06/27 07:18:42;;;;;;;5.47;4.97;;;;;;;;;;5019654;28;20811;-74
2021/06/27 07:21:46;;;;;;;6.83;6.23;;;;;;;;;;5021855;28;20181;-74
2021/06/27 07:24:51;;;;;;;6.77;5.83;;;;;;;;;;5009754;28;20640;-74
2021/06/27 07:27:55;;;;;;;6.83;6.13;;;;;;;;;;5012507;28;20224;-74
2021/06/27 07:30:59;;;;;;;6.13;5.53;;;;;;;;;;5017899;28;20536;-73
2021/06/27 07:34:03;;;;;;;5.80;5.30;;;;;;;;;;5028554;28;20196;-72
2021/06/27 07:37:08;;;;;;;6.60;5.83;;;;;;;;;;5029140;28;20228;-73
2021/06/27 07:40:14;;;;;;;6.77;5.33;;;;;;;;;;5027020;28;20182;-73
2021/06/27 07:43:19;;;;;;;5.87;5.27;;;;;;;;;;5016210;28;20192;-73
2021/06/27 07:46:24;;;;;;;6.93;5.07;;;;;;;;;;5029286;28;20185;-72
2021/06/27 07:49:28;;;;;;;6.00;5.30;;;;;;;;;;5029171;28;20815;-73
2021/06/27 07:52:36;;;;;;;5.33;4.83;;;;;;;;;;5026351;28;20199;-73
2021/06/27 07:55:40;;;;;;;6.53;4.97;;;;;;;;;;5025802;28;20194;-74
2021/06/27 07:58:45;;;;;;;5.53;4.17;;;;;;;;;;5012425;28;20538;-75
2021/06/27 08:01:49;;;;;;;5.60;4.55;;;;;;;;;;5024134;28;20186;-73
2021/06/27 08:04:53;;;;;;;19.23;5.53;;;;;;;;;;5018770;28;20188;-73
2021/06/27 08:07:57;;;;;;;62.25;8.68;;;;;;;;;;5022480;28;20217;-73
2021/06/27 08:11:01;;;;;;;8.52;4.32;;;;;;;;;;5018635;28;20187;-73
2021/06/27 08:14:08;;;;;;;4.95;4.55;;;;;;;;;;5030730;28;20190;-73
2021/06/27 08:17:13;;;;;;;5.57;4.38;;;;;;;;;;5030850;28;20443;-73
2021/06/27 08:20:18;;;;;;;11.25;4.88;;;;;;;;;;5018730;28;20648;-74
2021/06/27 08:23:22;;;;;;;7.05;3.78;;;;;;;;;;5021041;28;20184;-73
2021/06/27 08:26:27;;;;;;;4.32;3.92;;;;;;;;;;5016158;28;20188;-74
2021/06/27 08:29:30;;;;;;;5.53;4.78;;;;;;;;;;5021337;28;20186;-74
2021/06/27 08:32:37;;;;;;;10.73;4.22;;;;;;;;;;5028712;28;20185;-73
2021/06/27 08:35:41;;;;;;;4.15;3.42;;;;;;;;;;5015826;28;20183;-73
2021/06/27 08:38:45;;;;;;;5.70;3.72;;;;;;;;;;5030728;28;20211;-73
2021/06/27 08:41:49;;;;;;;4.85;4.20;;;;;;;;;;5018269;28;20184;-73
2021/06/27 08:44:54;;;;;;;3.90;3.58;;;;;;;;;;5026623;28;20205;-74
2021/06/27 08:47:59;;;;;;;5.85;3.63;;;;;;;;;;5032780;28;20224;-73
2021/06/27 08:51:06;;;;;;;4.88;3.40;;;;;;;;;;5034956;28;20537;-73
2021/06/27 08:54:11;;;;;;;3.72;3.10;;;;;;;;;;5034387;28;20181;-74
2021/06/27 08:57:17;;;;;;;3.90;3.50;;;;;;;;;;5032038;28;20229;-74
2021/06/27 09:00:21;;;;;;;13.57;3.97;;;;;;;;;;5015572;28;20633;-74
2021/06/27 09:03:26;;;;;;;6.30;2.95;;;;;;;;;;5016249;28;20193;-73
2021/06/27 09:06:32;;;;;;;3.28;3.05;;;;;;;;;;5015238;28;20178;-73
2021/06/27 09:09:37;;;;;;;4.53;3.10;;;;;;;;;;5021446;28;20182;-72
2021/06/27 09:12:45;;;;;;;5.15;3.00;;;;;;;;;;5014565;28;20178;-73
2021/06/27 09:15:51;;;;;;;3.20;2.80;;;;;;;;;;5030468;28;20193;-73
2021/06/27 09:19:01;;;;;;;3.28;2.97;;;;;;;;;;5018364;28;20707;-73
2021/06/27 09:22:10;;;;;;;2.85;2.65;;;;;;;;;;5040835;28;20193;-73
2021/06/27 09:25:27;;;;;;;6.97;2.65;;;;;;;;;;5041225;28;20190;-73
2021/06/27 09:28:46;;;;;;;3.80;3.50;;;;;;;;;;5013879;28;20214;-73
2021/06/27 09:31:50;;;;;;;2.97;2.67;;;;;;;;;;5031409;28;20190;-72
2021/06/27 09:34:54;;;;;;;3.58;3.03;;;;;;;;;;5016949;28;20198;-73
2021/06/27 09:38:24;;;;;;;3.40;3.10;;;;;;;;;;5047784;23;20580;-82
2021/06/27 09:41:37;;;;;;;3.22;3.00;;;;;;;;;;5022695;28;20181;-82
2021/06/27 09:44:42;;;;;;;4.35;3.08;;;;;;;;;;5033274;28;20185;-81
2021/06/27 09:48:04;;;;;;;2.80;2.60;;;;;;;;;;5026878;28;20210;-82
2021/06/27 09:51:14;;;;;;;3.25;2.95;;;;;;;;;;5003073;28;20633;-83
2021/06/27 09:54:24;;;;;;;2.97;2.58;;;;;;;;;;5008385;28;20186;-82
2021/06/27 09:57:28;;;;;;;4.63;2.53;;;;;;;;;;4998264;28;20221;-82
2021/06/27 10:00:33;;;;;;;2.78;2.58;;;;;;;;;;4991552;28;20197;-83
2021/06/27 10:03:50;;;;;;;4.70;2.53;;;;;;;;;;5001939;28;20190;-83
2021/06/27 10:06:57;;;;;;;2.50;2.30;;;;;;;;;;5001228;28;20249;-82
2021/06/27 10:10:21;;;;;;;2.90;2.30;;;;;;;;;;5021238;28;20185;-82
2021/06/27 10:13:25;;;;;;;3.45;2.40;;;;;;;;;;5006756;28;20194;-82
2021/06/27 10:16:31;;;;;;;2.40;2.20;;;;;;;;;;4998646;28;20552;-82
2021/06/27 10:19:36;;;;;;;2.63;2.42;;;;;;;;;;4982189;28;20197;-82
2021/06/27 10:22:41;;;;;;;2.30;2.10;;;;;;;;;;4979003;28;20179;-82
2021/06/27 10:25:46;;;;;;;1.80;1.70;;;;;;;;;;4990263;28;20183;-82
2021/06/27 10:28:52;;;;;;;8.13;2.30;;;;;;;;;;5007306;28;20186;-82
2021/06/27 10:31:56;;;;;;;3.55;1.88;;;;;;;;;;4998631;28;20629;-82
2021/06/27 10:35:07;;;;;;;3.17;2.08;;;;;;;;;;5011705;28;20195;-85
2021/06/27 10:38:11;;;;;;;2.42;2.00;;;;;;;;;;5009554;28;20740;-82
2021/06/27 10:41:16;;;;;;;2.65;1.80;;;;;;;;;;4978536;28;20187;-82
2021/06/27 10:44:28;;;;;;;2.20;2.08;;;;;;;;;;4978983;28;20183;-83
2021/06/27 10:47:34;;;;;;;2.35;1.75;;;;;;;;;;5001631;28;20214;-83
2021/06/27 10:50:49;;;;;;;3.13;1.90;;;;;;;;;;5028417;28;20189;-83
2021/06/27 10:54:11;;;;;;;1.90;1.67;;;;;;;;;;5029271;28;20197;-82
2021/06/27 10:57:16;;;;;;;2.03;1.83;;;;;;;;;;5020619;28;20719;-82
2021/06/27 11:00:22;;;;;;;2.15;1.80;;;;;;;;;;5002686;28;20555;-82
2021/06/27 11:03:26;;;;;;;1.67;1.58;;;;;;;;;;5011101;28;20201;-82
2021/06/27 11:06:33;;;;;;;1.85;1.73;;;;;;;;;;4988129;28;20197;-83
2021/06/27 11:09:37;;;;;;;1.73;1.63;;;;;;;;;;5010246;28;20442;-82
2021/06/27 11:13:00;;;;;;;18.80;2.72;;;;;;;;;;5017190;28;20189;-83
2021/06/27 11:16:07;;;;;;;2.40;2.03;;;;;;;;;;5014983;28;20201;-82
2021/06/27 11:19:30;;;;;;;1.88;1.77;;;;;;;;;;5019106;28;20173;-82
2021/06/27 11:22:47;;;;;;;1.77;1.67;;;;;;;;;;4998209;28;20186;-82
2021/06/27 11:25:51;;;;;;;2.92;1.92;;;;;;;;;;4991226;28;20202;-83
2021/06/27 11:28:55;;;;;;;3.20;1.60;;;;;;;;;;4991616;28;20198;-82
2021/06/27 11:32:08;;;;;;;2.92;1.70;;;;;;;;;;5014190;28;20647;-82
2021/06/27 11:35:36;;;;;;;1.20;1.10;;;;;;;;;;4992775;28;20178;-82
2021/06/27 11:38:45;;;;;;;1.83;1.65;;;;;;;;;;4989224;28;20230;-82
2021/06/27 11:41:49;;;;;;;1.52;1.42;;;;;;;;;;4994974;28;20193;-82
2021/06/27 11:45:06;;;;;;;1.70;1.60;;;;;;;;;;5027063;28;20292;-83
2021/06/27 11:48:11;;;;;;;1.90;1.70;;;;;;;;;;5022524;28;20692;-82
2021/06/27 11:51:15;;;;;;;2.08;1.30;;;;;;;;;;5034969;28;20177;-82
2021/06/27 11:54:25;;;;;;;2.38;1.30;;;;;;;;;;5016326;28;20182;-83
2021/06/27 11:57:38;;;;;;;2.45;1.60;;;;;;;;;;4997238;28;20214;-83
2021/06/27 12:00:45;;;;;;;1.70;1.55;;;;;;;;;;4997531;28;20190;-83
2021/06/27 12:03:50;;;;;;;1.80;1.70;;;;;;;;;;4998766;28;20182;-82
2021/06/27 12:06:54;;;;;;;1.70;1.60;;;;;;;;;;5016223;28;20217;-83
2021/06/27 12:10:20;;;;;;;2.65;1.70;;;;;;;;;;5005536;28;20182;-90
2021/06/27 12:13:26;;;;;;;1.60;1.50;;;;;;;;;;5035279;28;20189;-83
2021/06/27 12:16:31;;;;;;;2.65;1.67;;;;;;;;;;5020713;28;20190;-82
2021/06/27 12:19:50;;;;;;;1.67;1.58;;;;;;;;;;5004679;28;20182;-83
2021/06/27 12:22:56;;;;;;;1.55;1.33;;;;;;;;;;5027114;28;20198;-82
2021/06/27 12:26:11;;;;;;;3.20;1.48;;;;;;;;;;4996938;28;20205;-82
2021/06/27 12:29:16;;;;;;;2.28;1.63;;;;;;;;;;5012639;28;20181;-83
2021/06/27 12:32:20;;;;;;;2.03;1.83;;;;;;;;;;5022912;28;20197;-82
2021/06/27 12:35:24;;;;;;;1.60;1.50;;;;;;;;;;4981368;28;20178;-83
2021/06/27 12:38:29;;;;;;;3.60;1.58;;;;;;;;;;4981172;28;20237;-82
2021/06/27 12:41:38;;;;;;;3.05;1.70;;;;;;;;;;4997605;28;20657;-82
2021/06/27 12:44:42;;;;;;;2.10;1.80;;;;;;;;;;5008051;28;20201;-82
2021/06/27 12:47:47;;;;;;;2.85;1.63;;;;;;;;;;5013196;28;20217;-83
2021/06/27 12:50:51;;;;;;;3.00;1.70;;;;;;;;;;5013496;28;20205;-82
2021/06/27 12:54:00;;;;;;;2.00;1.90;;;;;;;;;;5000483;28;20182;-82
2021/06/27 12:57:17;;;;;;;2.10;2.00;;;;;;;;;;5011598;28;20221;-83
2021/06/27 13:00:21;;;;;;;2.67;1.80;;;;;;;;;;5005949;28;20198;-86
2021/06/27 13:03:29;;;;;;;3.05;2.08;;;;;;;;;;5000260;28;20925;-92
2021/06/27 13:06:52;;;;;;;2.40;1.95;;;;;;;;;;5030965;28;20182;-82
2021/06/27 13:10:28;;;;;;;2.40;2.20;;;;;;;;;;5014493;28;20194;-83
2021/06/27 13:13:32;;;;;;;2.00;1.90;;;;;;;;;;5008504;28;20190;-82
2021/06/27 13:16:36;;;;;;;2.10;1.80;;;;;;;;;;5007415;28;20220;-82
2021/06/27 13:20:08;;;;;;;2.33;1.88;;;;;;;;;;5012096;28;20186;-82
2021/06/27 13:23:25;;;;;;;2.10;1.90;;;;;;;;;;5010834;28;20190;-82
2021/06/27 13:26:38;;;;;;;2.22;2.03;;;;;;;;;;5004150;28;20189;-89
2021/06/27 13:29:42;;;;;;;4.28;1.95;;;;;;;;;;4998201;28;20185;-86
2021/06/27 13:32:46;;;;;;;2.60;2.00;;;;;;;;;;5027410;28;20522;-83
2021/06/27 13:36:13;;;;;;;3.20;2.00;;;;;;;;;;5000601;28;20193;-83
2021/06/27 13:39:17;;;;;;;2.63;1.80;;;;;;;;;;5019732;28;20205;-83
2021/06/27 13:42:22;;;;;;;3.00;1.80;;;;;;;;;;5034952;28;20185;-88
2021/06/27 13:45:27;;;;;;;3.17;1.83;;;;;;;;;;5013717;28;20198;-83
2021/06/27 13:48:31;;;;;;;2.47;1.77;;;;;;;;;;4995944;28;20218;-83
2021/06/27 13:51:36;;;;;;;4.63;2.08;;;;;;;;;;4983412;28;20175;-83
2021/06/27 13:54:40;;;;;;;2.15;1.92;;;;;;;;;;5007714;28;20193;-83
2021/06/27 13:57:45;;;;;;;3.20;2.05;;;;;;;;;;5032367;28;20217;-89
2021/06/27 14:00:49;;;;;;;2.65;1.50;;;;;;;;;;5029658;28;20201;-84
2021/06/27 14:03:54;;;;;;;3.42;1.60;;;;;;;;;;4996264;28;20185;-85
2021/06/27 14:06:58;;;;;;;3.15;1.70;;;;;;;;;;5013570;28;20229;-87
2021/06/27 14:10:08;;;;;;;2.65;1.50;;;;;;;;;;5030351;28;20201;-92
2021/06/27 14:13:12;;;;;;;1.63;1.42;;;;;;;;;;5013596;28;20178;-84
2021/06/27 14:16:16;;;;;;;3.70;1.92;;;;;;;;;;5002793;28;20193;-83
2021/06/27 14:19:20;;;;;;;2.25;1.95;;;;;;;;;;5022560;28;20683;-83
2021/06/27 14:22:24;;;;;;;1.90;1.80;;;;;;;;;;5010719;28;20189;-83
2021/06/27 14:25:28;;;;;;;2.22;2.03;;;;;;;;;;5019875;28;20193;-83
2021/06/27 14:28:32;;;;;;;12.52;2.88;;;;;;;;;;5021403;28;20213;-83
2021/06/27 14:31:37;;;;;;;2.20;2.00;;;;;;;;;;5021694;28;20177;-83
2021/06/27 14:34:41;;;;;;;3.13;1.90;;;;;;;;;;4995609;28;20535;-83
2021/06/27 14:37:45;;;;;;;2.70;2.40;;;;;;;;;;5028041;28;20707;-82
2021/06/27 14:40:49;;;;;;;2.55;1.90;;;;;;;;;;5003640;28;20546;-83
2021/06/27 14:43:54;;;;;;;2.22;2.03;;;;;;;;;;5014528;28;20189;-83
2021/06/27 14:46:58;;;;;;;2.15;2.05;;;;;;;;;;5021970;28;20224;-83
2021/06/27 14:50:07;;;;;;;3.42;2.10;;;;;;;;;;5020033;28;20648;-83
2021/06/27 14:53:11;;;;;;;2.30;2.10;;;;;;;;;;5020949;28;20177;-82
2021/06/27 14:56:15;;;;;;;1.95;1.85;;;;;;;;;;4990590;28;20530;-83
2021/06/27 14:59:20;;;;;;;2.83;2.13;;;;;;;;;;5014418;28;20213;-83
2021/06/27 15:02:24;;;;;;;4.88;2.05;;;;;;;;;;5021806;28;20201;-84
2021/06/27 15:05:28;;;;;;;2.38;1.80;;;;;;;;;;4993062;28;20202;-83
2021/06/27 15:08:32;;;;;;;2.17;1.98;;;;;;;;;;4994965;28;20581;-84
2021/06/27 15:11:37;;;;;;;1.75;1.65;;;;;;;;;;5032633;28;20177;-84
2021/06/27 15:14:41;;;;;;;3.92;2.00;;;;;;;;;;4986058;28;20198;-83
2021/06/27 15:17:45;;;;;;;2.47;1.80;;;;;;;;;;5007912;28;20216;-82
2021/06/27 15:20:49;;;;;;;2.83;1.77;;;;;;;;;;5005920;28;20174;-89
2021/06/27 15:23:53;;;;;;;2.75;1.75;;;;;;;;;;5025188;28;20196;-83
2021/06/27 15:26:58;;;;;;;2.95;1.75;;;;;;;;;;5025175;28;20221;-83
2021/06/27 15:30:03;;;;;;;1.95;1.75;;;;;;;;;;5017762;28;20193;-83
2021/06/27 15:33:08;;;;;;;2.17;1.80;;;;;;;;;;4995222;28;20182;-83
2021/06/27 15:36:12;;;;;;;3.80;3.50;;;;;;;;;;5017370;28;20202;-85
2021/06/27 15:39:16;;;;;;;10.32;3.22;;;;;;;;;;5024930;28;20544;-83
2021/06/27 15:42:22;;;;;;;2.20;2.00;;;;;;;;;;5035090;23;20232;-86
2021/06/27 15:45:26;;;;;;;286.58;233.32;;;;;;;;;;5036594;28;20173;-84
2021/06/27 15:48:31;;;;;;;4.53;3.80;;;;;;;;;;5035082;28;20541;-83
2021/06/27 15:51:35;;;;;;;4.05;3.22;;;;;;;;;;4994112;28;20213;-83
2021/06/27 15:54:39;;;;;;;42.17;22.60;;;;;;;;;;4994595;28;20529;-83
2021/06/27 15:57:44;;;;;;;2.88;2.20;;;;;;;;;;5029217;28;20208;-85
2021/06/27 16:00:48;;;;;;;2.40;2.15;;;;;;;;;;5007264;28;20192;-88
2021/06/27 16:03:53;;;;;;;1.85;1.70;;;;;;;;;;5004925;28;20658;-86
2021/06/27 16:06:57;;;;;;;4.75;4.35;;;;;;;;;;5016278;28;20190;-81
2021/06/27 16:10:02;;;;;;;13.40;10.30;;;;;;;;;;5037264;28;20192;-81
2021/06/27 16:13:06;;;;;;;25.33;15.60;;;;;;;;;;5035467;28;20226;-83
2021/06/27 16:16:16;;;;;;;1757.68;972.30;;;;;;;;;;5036019;28;20689;-82
2021/06/27 16:19:20;;;;;;;132.02;98.68;;;;;;;;;;5020002;28;20575;-83
2021/06/27 16:22:24;;;;;;;34.78;24.95;;;;;;;;;;5019155;28;20231;-83
2021/06/27 16:25:28;;;;;;;2.95;2.50;;;;;;;;;;5014301;28;20180;-83
2021/06/27 16:28:34;;;;;;;22.80;20.38;;;;;;;;;;5032377;28;20181;-83
2021/06/27 16:31:40;;;;;;;646.90;502.27;;;;;;;;;;5017888;28;20219;-83
2021/06/27 16:34:46;;;;;;;9.98;8.98;;;;;;;;;;4993703;28;20182;-83
2021/06/27 16:37:50;;;;;;;632.25;371.10;;;;;;;;;;5016564;28;20188;-82
2021/06/27 16:40:54;;;;;;;746.50;670.78;;;;;;;;;;5034135;28;20202;-83
2021/06/27 16:43:58;;;;;;;1229.53;848.72;;;;;;;;;;5004730;28;20215;-83
2021/06/27 16:47:03;;;;;;;116.55;95.30;;;;;;;;;;4994973;28;20202;-83
2021/06/27 16:50:10;;;;;;;6.00;3.70;;;;;;;;;;5004416;28;20222;-83
2021/06/27 16:53:15;;;;;;;7.85;3.40;;;;;;;;;;5039895;28;20224;-83
2021/06/27 16:56:20;;;;;;;6.15;3.88;;;;;;;;;;5003663;28;20194;-83
2021/06/27 16:59:24;;;;;;;3.63;2.40;;;;;;;;;;5045618;28;20213;-83
2021/06/27 17:02:28;;;;;;;2.78;2.30;;;;;;;;;;5034542;28;20217;-83
2021/06/27 17:05:32;;;;;;;7.55;3.75;;;;;;;;;;5034415;28;20194;-81
2021/06/27 17:08:40;;;;;;;9.73;6.07;;;;;;;;;;5012439;28;20219;-83
2021/06/27 17:11:44;;;;;;;6.07;2.97;;;;;;;;;;5031482;28;20220;-83
2021/06/27 17:14:49;;;;;;;7.32;4.55;;;;;;;;;;5019165;28;20181;-83
2021/06/27 17:17:54;;;;;;;5.78;3.88;;;;;;;;;;5012653;28;20181;-83
2021/06/27 17:20:58;;;;;;;4.55;3.35;;;;;;;;;;5023190;28;20196;-83
2021/06/27 17:24:03;;;;;;;6.70;5.32;;;;;;;;;;5011998;28;20200;-88
2021/06/27 17:27:09;;;;;;;13.70;9.10;;;;;;;;;;5023711;28;20542;-83
2021/06/27 17:30:16;;;;;;;7.97;5.20;;;;;;;;;;5035371;28;20194;-88
2021/06/27 17:33:22;;;;;;;5.10;4.13;;;;;;;;;;5010532;28;20191;-82
2021/06/27 17:36:26;;;;;;;6.55;3.78;;;;;;;;;;5012778;28;20184;-82
2021/06/27 17:39:30;;;;;;;3.93;3.47;;;;;;;;;;5023931;28;20213;-85
2021/06/27 17:42:35;;;;;;;5.17;4.00;;;;;;;;;;5032985;28;20225;-84
2021/06/27 17:45:39;;;;;;;4.40;3.93;;;;;;;;;;5012750;28;20191;-83
2021/06/27 17:48:47;;;;;;;4.80;4.00;;;;;;;;;;5013118;28;20191;-83
2021/06/27 17:51:51;;;;;;;3.93;3.30;;;;;;;;;;5034280;28;20220;-83
2021/06/27 17:54:55;;;;;;;6.20;4.77;;;;;;;;;;5024297;28;20189;-83
2021/06/27 17:58:00;;;;;;;6.40;4.80;;;;;;;;;;5018611;28;20212;-83
2021/06/27 18:01:04;;;;;;;5.13;3.87;;;;;;;;;;5009939;28;20220;-83
2021/06/27 18:04:08;;;;;;;4.20;3.80;;;;;;;;;;5036292;28;20190;-83
2021/06/27 18:07:12;;;;;;;6.87;3.60;;;;;;;;;;5047626;28;20176;-83
2021/06/27 18:10:17;;;;;;;5.33;3.40;;;;;;;;;;5002080;28;20183;-83
2021/06/27 18:13:21;;;;;;;7.97;3.17;;;;;;;;;;5033804;28;20178;-85
2021/06/27 18:16:26;;;;;;;10.43;2.97;;;;;;;;;;5032618;28;20193;-82
2021/06/27 18:19:31;;;;;;;6.30;2.83;;;;;;;;;;4994839;28;20202;-82
2021/06/27 18:22:37;;;;;;;3.73;2.43;;;;;;;;;;5017722;28;20219;-82
2021/06/27 18:25:43;;;;;;;2.37;2.17;;;;;;;;;;5021079;28;20527;-84
2021/06/27 18:28:52;;;;;;;3.30;2.30;;;;;;;;;;5033938;28;20183;-82
2021/06/27 18:31:57;;;;;;;4.23;2.60;;;;;;;;;;5016285;28;20218;-82